Time;durP1;ratioP1;P1;durP2;ratioP2;P2;SDS_P1;SDS_P2;PMS_P1;PMS_P2;Temp;Humidity;BMP_temperature;BMP_pressure;BME280_temperature;BME280_humidity;BME280_pressure;Samples;Min_cycle;Max_cycle;Signal;HPM_P1;HPM_P2
2021/03/02 00:01:51;;;;;;;;;;;;;;;2.92;77.22;102205.84;124848;1111;23085;-53
2021/03/02 00:04:21;;;;;;;61.07;23.30;;;;;;;2.88;77.66;102202.27;124665;1112;21511;-54
2021/03/02 00:06:53;;;;;;;53.97;22.93;;;;;;;2.87;77.64;102198.73;124731;1111;26118;-56
2021/03/02 00:09:21;;;;;;;;;;;;;;;2.84;77.48;102199.48;124616;1111;23241;-56
2021/03/02 00:11:51;;;;;;;63.47;26.47;;;;;;;2.79;77.48;102191.56;124794;1112;23101;-58
2021/03/02 00:14:21;;;;;;;68.28;29.00;;;;;;;2.74;76.95;102196.61;124488;1112;23099;-55
2021/03/02 00:16:57;;;;;;;63.42;25.25;;;;;;;2.67;77.53;102200.08;124666;1112;23040;-57
2021/03/02 00:19:33;;;;;;;59.97;26.40;;;;;;;2.64;77.13;102194.53;124822;1111;23090;-56
2021/03/02 00:22:13;;;;;;;62.80;25.90;;;;;;;2.62;77.85;102189.41;124335;1109;24370;-58
2021/03/02 00:24:46;;;;;;;62.45;25.12;;;;;;;2.58;77.50;102199.61;124810;1110;26444;-57
2021/03/02 00:27:17;;;;;;;65.75;27.90;;;;;;;2.53;77.38;102191.66;124803;1112;22984;-53
2021/03/02 00:29:47;;;;;;;56.57;23.60;;;;;;;2.51;77.05;102195.95;124761;1112;28040;-55
2021/03/02 00:32:19;;;;;;;58.00;26.07;;;;;;;2.47;77.47;102190.41;124810;1111;23197;-56
2021/03/02 00:34:49;;;;;;;61.25;25.10;;;;;;;2.42;77.24;102199.81;124579;1112;23209;-56
2021/03/02 00:37:18;;;;;;;55.30;24.18;;;;;;;2.39;77.72;102194.27;124727;1111;23036;-54
2021/03/02 00:39:48;;;;;;;56.13;24.10;;;;;;;2.36;77.18;102197.76;124721;1110;23194;-55
2021/03/02 00:42:17;;;;;;;56.83;23.85;;;;;;;2.33;77.62;102202.08;124941;1112;22958;-53
2021/03/02 00:44:46;;;;;;;64.93;24.87;;;;;;;2.31;77.18;102201.66;124865;1112;23207;-53
2021/03/02 00:47:17;;;;;;;65.27;25.30;;;;;;;2.28;77.24;102210.67;124621;1111;23154;-55
2021/03/02 00:49:47;;;;;;;62.43;25.92;;;;;;;2.26;77.19;102198.42;124736;1112;23096;-52
2021/03/02 00:52:16;;;;;;;60.08;25.45;;;;;;;2.23;77.42;102205.50;124806;1111;23033;-57
2021/03/02 00:54:45;;;;;;;60.20;25.87;;;;;;;2.21;77.43;102202.33;124862;1111;23010;-54
2021/03/02 00:57:14;;;;;;;61.70;27.45;;;;;;;2.19;77.53;102193.62;124789;1112;23075;-55
2021/03/02 00:59:43;;;;;;;59.43;27.40;;;;;;;2.16;77.34;102191.62;124905;1111;23089;-56
2021/03/02 01:02:13;;;;;;;62.15;26.90;;;;;;;2.14;77.56;102184.90;124750;1112;23094;-55
2021/03/02 01:04:42;;;;;;;62.03;26.80;;;;;;;2.09;76.95;102193.52;124745;1110;23252;-58
2021/03/02 01:07:11;;;;;;;61.50;27.27;;;;;;;2.03;77.54;102184.76;124762;1110;27314;-56
2021/03/02 01:09:41;;;;;;;64.63;26.53;;;;;;;1.99;77.05;102192.19;124728;1111;23089;-54
2021/03/02 01:12:12;;;;;;;59.93;26.07;;;;;;;1.96;77.21;102195.70;124753;1112;23030;-54
2021/03/02 01:14:42;;;;;;;69.10;29.77;;;;;;;1.94;77.35;102184.27;124868;1111;24771;-53
2021/03/02 01:17:11;;;;;;;68.70;28.27;;;;;;;1.93;77.47;102187.38;124740;1110;23052;-53
2021/03/02 01:19:40;;;;;;;72.00;30.87;;;;;;;1.91;77.36;102176.73;124804;1111;22955;-53
2021/03/02 01:22:09;;;;;;;69.80;31.50;;;;;;;1.89;78.03;102175.52;124850;1112;23340;-55
2021/03/02 01:24:38;;;;;;;70.10;30.43;;;;;;;1.85;78.38;102172.72;124794;1111;26444;-56
2021/03/02 01:27:07;;;;;;;72.23;29.00;;;;;;;1.84;78.58;102179.41;124760;1112;23167;-54
2021/03/02 01:29:37;;;;;;;68.73;28.53;;;;;;;1.85;78.58;102175.48;124933;1111;23446;-55
2021/03/02 01:32:07;;;;;;;66.10;27.07;;;;;;;1.85;77.85;102158.95;124865;1112;23239;-53
2021/03/02 01:34:36;;;;;;;65.83;26.42;;;;;;;1.86;78.45;102177.08;124787;1111;24692;-54
2021/03/02 01:37:05;;;;;;;61.50;26.50;;;;;;;1.87;78.48;102175.89;124796;1112;24582;-55
2021/03/02 01:39:34;;;;;;;71.97;29.63;;;;;;;1.86;78.17;102176.28;124790;1111;22987;-53
2021/03/02 01:42:03;;;;;;;69.53;30.47;;;;;;;1.83;78.55;102175.05;124767;1111;23011;-54
2021/03/02 01:44:34;;;;;;;68.27;29.27;;;;;;;1.82;78.09;102176.20;124938;1112;23039;-56
2021/03/02 01:47:03;;;;;;;75.03;30.83;;;;;;;1.85;78.75;102174.67;124889;1112;23055;-55
2021/03/02 01:49:33;;;;;;;75.50;32.57;;;;;;;1.85;78.18;102177.43;124854;1111;23054;-55
2021/03/02 01:52:02;;;;;;;73.57;32.87;;;;;;;1.85;78.86;102160.91;124895;1112;25960;-53
2021/03/02 01:54:32;;;;;;;82.07;33.20;;;;;;;1.85;78.74;102166.41;124792;1112;23002;-56
2021/03/02 01:57:01;;;;;;;86.42;35.65;;;;;;;1.85;78.70;102158.16;125058;1111;23042;-54
2021/03/02 01:59:30;;;;;;;78.50;31.43;;;;;;;1.82;79.61;102159.69;124821;1112;26622;-53
2021/03/02 02:02:02;;;;;;;82.45;32.63;;;;;;;1.77;79.69;102165.53;124871;1112;24684;-55
2021/03/02 02:04:40;;;;;;;86.73;31.47;;;;;;;1.77;79.90;102161.98;124811;1110;23038;-57
2021/03/02 02:07:14;;;;;;;80.73;33.10;;;;;;;1.76;79.56;102152.92;124725;1111;23106;-56
2021/03/02 02:09:52;;;;;;;80.80;33.53;;;;;;;1.76;80.25;102154.91;124770;1112;23140;-56
2021/03/02 02:12:28;;;;;;;80.87;32.67;;;;;;;1.77;79.98;102150.97;124761;1110;26466;-54
2021/03/02 02:15:03;;;;;;;77.63;32.27;;;;;;;1.75;80.41;102154.10;124780;1111;23123;-57
2021/03/02 02:17:40;;;;;;;79.00;33.53;;;;;;;1.78;80.41;102152.56;124911;1112;23040;-55
2021/03/02 02:20:12;;;;;;;77.50;31.57;;;;;;;1.80;80.80;102150.23;124881;1112;27659;-59
2021/03/02 02:23:18;;;;;;;81.20;32.33;;;;;;;1.80;80.70;102156.52;124904;1112;28363;-57
2021/03/02 02:25:56;;;;;;;79.73;28.90;;;;;;;1.78;81.10;102152.56;124748;1111;23082;-55
2021/03/02 02:28:26;;;;;;;87.50;34.20;;;;;;;1.78;81.12;102150.59;124891;1110;25928;-54
2021/03/02 02:30:58;;;;;;;83.20;32.13;;;;;;;1.80;80.52;102147.48;124796;1111;23040;-56
2021/03/02 02:33:33;;;;;;;79.53;31.67;;;;;;;1.82;81.15;102142.39;124865;1112;23238;-57
2021/03/02 02:36:06;;;;;;;71.23;28.93;;;;;;;1.83;81.37;102149.47;124814;1112;23030;-53
2021/03/02 02:38:40;;;;;;;71.70;28.83;;;;;;;1.84;80.75;102153.83;124787;1110;23049;-57
2021/03/02 02:41:12;;;;;;;71.60;29.03;;;;;;;1.84;80.82;102148.32;124771;1112;23023;-54
2021/03/02 02:43:43;;;;;;;76.73;32.03;;;;;;;1.84;81.28;102143.61;124716;1110;23024;-58
2021/03/02 02:46:12;;;;;;;70.60;27.70;;;;;;;1.86;80.80;102145.98;124718;1110;23056;-53
2021/03/02 02:48:42;;;;;;;69.57;28.13;;;;;;;1.84;81.62;102146.36;124712;1112;23022;-54
2021/03/02 02:51:12;;;;;;;73.35;30.82;;;;;;;1.85;81.46;102141.63;124689;1112;23213;-53
2021/03/02 02:53:44;;;;;;;73.10;29.83;;;;;;;1.88;81.05;102140.89;124728;1111;26457;-56
2021/03/02 02:56:16;;;;;;;69.60;30.00;;;;;;;1.89;81.57;102140.52;124662;1112;26553;-56
2021/03/02 02:59:00;;;;;;;62.37;26.87;;;;;;;1.89;81.71;102143.27;124733;1112;23615;-53
2021/03/02 03:01:33;;;;;;;77.67;31.20;;;;;;;1.90;81.66;102136.60;124829;1111;26598;-54
2021/03/02 03:04:05;;;;;;;74.70;30.20;;;;;;;1.93;81.49;102135.04;124876;1112;23086;-53
2021/03/02 03:06:38;;;;;;;72.70;29.20;;;;;;;1.92;81.63;102137.02;124780;1113;24869;-54
2021/03/02 03:09:07;;;;;;;68.53;26.90;;;;;;;1.94;81.92;102144.91;124690;1111;26156;-57
2021/03/02 03:11:41;;;;;;;71.80;28.87;;;;;;;1.93;81.79;102137.80;124839;1113;23167;-54
2021/03/02 03:14:14;;;;;;;70.33;29.37;;;;;;;1.94;81.36;102128.37;124949;1112;23072;-57
2021/03/02 03:16:47;;;;;;;76.20;27.55;;;;;;;1.93;81.29;102137.80;124734;1112;25706;-54
2021/03/02 03:19:24;;;;;;;66.90;25.30;;;;;;;1.93;82.17;102133.08;124679;1111;27371;-54
2021/03/02 03:21:55;;;;;;;75.00;27.70;;;;;;;1.93;81.54;102127.58;124719;1111;26040;-57
2021/03/02 03:24:26;;;;;;;71.63;28.03;;;;;;;1.94;81.99;102128.37;124701;1112;23088;-53
2021/03/02 03:26:57;;;;;;;66.83;27.03;;;;;;;1.95;81.80;102127.20;124607;1111;26496;-55
2021/03/02 03:29:27;;;;;;;62.43;26.00;;;;;;;1.91;82.10;102129.91;124817;1111;24380;-55
2021/03/02 03:31:59;;;;;;;65.95;26.52;;;;;;;1.92;81.86;102126.00;124755;1111;25934;-55
2021/03/02 03:34:29;;;;;;;69.27;28.20;;;;;;;1.92;81.99;102139.78;124836;1110;23327;-56
2021/03/02 03:36:59;;;;;;;69.20;27.35;;;;;;;1.90;82.10;102135.80;124796;1112;24653;-56
2021/03/02 03:39:28;;;;;;;74.00;28.35;;;;;;;1.89;81.73;102126.74;124767;1112;23040;-55
2021/03/02 03:41:58;;;;;;;68.83;27.50;;;;;;;1.89;82.34;102139.71;124699;1111;23096;-54
2021/03/02 03:44:28;;;;;;;75.78;29.32;;;;;;;1.90;82.42;102131.09;124855;1111;23092;-53
2021/03/02 03:46:58;;;;;;;74.03;27.87;;;;;;;1.87;82.37;102134.58;124895;1112;23098;-54
2021/03/02 03:49:27;;;;;;;75.22;29.52;;;;;;;1.87;82.31;102133.78;124737;1112;23038;-54
2021/03/02 03:51:58;;;;;;;75.33;29.03;;;;;;;1.87;81.88;102134.58;124818;1110;23040;-57
2021/03/02 03:54:26;;;;;;;;;;;;;;;1.86;81.96;102138.52;124840;1113;23091;-57
2021/03/02 03:56:56;;;;;;;67.43;25.30;;;;;;;1.84;82.37;102143.61;124603;1112;21542;-56
2021/03/02 03:59:27;;;;;;;74.33;30.53;;;;;;;1.85;82.75;102147.94;124813;1112;23026;-54
2021/03/02 04:01:57;;;;;;;71.95;28.00;;;;;;;1.85;82.30;102145.19;124727;1112;25575;-56
2021/03/02 04:04:27;;;;;;;74.47;30.70;;;;;;;1.83;82.17;102142.01;124764;1112;26059;-57
2021/03/02 04:06:57;;;;;;;76.92;28.23;;;;;;;1.84;82.35;102151.08;124857;1111;23180;-58
2021/03/02 04:09:27;;;;;;;69.20;28.70;;;;;;;1.85;82.57;102147.94;124741;1112;23273;-54
2021/03/02 04:11:57;;;;;;;78.67;30.40;;;;;;;1.89;82.29;102147.97;124775;1112;23049;-56
2021/03/02 04:14:30;;;;;;;86.17;30.47;;;;;;;1.88;82.36;102147.20;124740;1110;23046;-58
2021/03/02 04:16:59;;;;;;;83.65;30.80;;;;;;;1.90;82.92;102147.63;124755;1112;23040;-54
2021/03/02 04:19:28;;;;;;;78.30;30.40;;;;;;;1.92;82.59;102148.04;124709;1111;23027;-53
2021/03/02 04:22:00;;;;;;;79.73;28.57;;;;;;;1.92;82.46;102149.99;124808;1111;26524;-53
2021/03/02 04:24:29;;;;;;;90.33;31.40;;;;;;;1.89;82.37;102153.48;124764;1111;23107;-53
2021/03/02 04:26:59;;;;;;;87.63;31.70;;;;;;;1.84;82.71;102151.87;124805;1112;23085;-56
2021/03/02 04:29:28;;;;;;;89.25;32.42;;;;;;;1.83;82.40;102146.72;124695;1112;27311;-56
2021/03/02 04:31:57;;;;;;;83.83;32.00;;;;;;;1.82;82.55;102143.16;124727;1112;24683;-55
2021/03/02 04:34:26;;;;;;;87.80;33.40;;;;;;;1.80;82.74;102144.73;124701;1112;23109;-55
2021/03/02 04:36:54;;;;;;;85.00;30.35;;;;;;;1.81;82.51;102141.59;124754;1112;23027;-57
2021/03/02 04:39:23;;;;;;;94.07;33.13;;;;;;;1.81;82.98;102143.55;124746;1110;23181;-56
2021/03/02 04:41:52;;;;;;;88.95;31.85;;;;;;;1.79;82.77;102143.92;124826;1112;23020;-54
2021/03/02 04:44:21;;;;;;;82.70;29.23;;;;;;;1.78;82.97;102133.30;124757;1112;23102;-53
2021/03/02 04:46:50;;;;;;;90.10;33.60;;;;;;;1.79;83.31;102137.62;124742;1112;23039;-59
2021/03/02 04:49:19;;;;;;;84.47;32.10;;;;;;;1.78;83.14;102139.57;124800;1110;27448;-53
2021/03/02 04:51:49;;;;;;;94.90;29.70;;;;;;;1.78;82.99;102138.80;124840;1111;24697;-56
2021/03/02 04:54:18;;;;;;;87.90;29.07;;;;;;;1.78;82.63;102142.33;124831;1112;23178;-53
2021/03/02 04:56:47;;;;;;;87.77;30.60;;;;;;;1.76;82.72;102139.16;124676;1111;23123;-56
2021/03/02 04:59:16;;;;;;;89.83;31.73;;;;;;;1.75;83.20;102132.07;124830;1111;25954;-53
2021/03/02 05:01:45;;;;;;;85.30;29.30;;;;;;;1.76;83.04;102130.89;124689;1111;24560;-55
2021/03/02 05:04:14;;;;;;;90.93;31.80;;;;;;;1.75;83.18;102136.78;124567;1111;23274;-54
2021/03/02 05:06:43;;;;;;;87.30;31.45;;;;;;;1.76;82.84;102127.37;124605;1111;24648;-56
2021/03/02 05:09:12;;;;;;;86.90;30.45;;;;;;;1.75;83.10;102128.52;124796;1111;25983;-54
2021/03/02 05:11:41;;;;;;;80.40;30.10;;;;;;;1.73;83.28;102123.39;124633;1112;23741;-54
2021/03/02 05:14:13;;;;;;;83.67;30.47;;;;;;;1.73;82.90;102115.13;124782;1111;23025;-54
2021/03/02 05:16:41;;;;;;;95.93;28.17;;;;;;;1.69;83.33;102119.80;124805;1112;27380;-56
2021/03/02 05:19:10;;;;;;;95.85;32.40;;;;;;;1.68;82.93;102120.19;124693;1110;23238;-54
2021/03/02 05:21:39;;;;;;;81.90;31.00;;;;;;;1.69;83.09;102122.55;124760;1112;27440;-55
2021/03/02 05:24:10;;;;;;;76.40;28.15;;;;;;;1.70;83.14;102120.60;124738;1111;26069;-55
2021/03/02 05:26:38;;;;;;;;;;;;;;;1.71;83.26;102117.47;124803;1112;23017;-56
2021/03/02 05:29:07;;;;;;;86.47;30.00;;;;;;;1.74;83.51;102116.70;124610;1111;21549;-56
2021/03/02 05:31:36;;;;;;;96.10;31.90;;;;;;;1.73;83.22;102117.89;124374;1112;23232;-56
2021/03/02 05:34:05;;;;;;;93.57;30.33;;;;;;;1.72;83.06;102123.77;124569;1112;26176;-56
2021/03/02 05:36:35;;;;;;;95.77;30.17;;;;;;;1.71;83.41;102120.22;124480;1113;23241;-56
2021/03/02 05:39:06;;;;;;;96.25;32.78;;;;;;;1.72;83.44;102127.30;124622;1112;23046;-57
2021/03/02 05:41:36;;;;;;;86.47;30.12;;;;;;;1.73;83.21;102128.09;124395;1112;23070;-56
2021/03/02 05:44:07;;;;;;;95.65;31.00;;;;;;;1.72;83.17;102123.77;124516;1112;23809;-58
2021/03/02 05:46:34;;;;;;;;;;;;;;;1.67;83.00;102127.64;124369;1112;23086;-58
2021/03/02 05:49:05;;;;;;;93.47;29.40;;;;;;;1.64;83.64;102131.13;124309;1112;21523;-63
2021/03/02 05:51:34;;;;;;;;;;;;;;;1.67;83.23;102135.90;124362;1111;23181;-58
2021/03/02 05:54:04;;;;;;;107.77;29.57;;;;;;;1.62;83.09;102142.52;124408;1112;21593;-55
2021/03/02 05:56:37;;;;;;;95.25;28.60;;;;;;;1.58;83.45;102146.38;124562;1112;26105;-56
2021/03/02 05:59:07;;;;;;;103.10;29.20;;;;;;;1.55;83.55;102147.91;124523;1112;23038;-58
2021/03/02 06:01:37;;;;;;;82.37;29.02;;;;;;;1.55;83.65;102145.16;124309;1112;23205;-55
2021/03/02 06:04:12;;;;;;;101.80;31.30;;;;;;;1.58;83.86;102160.14;123782;1111;24368;-58
2021/03/02 06:06:41;;;;;;;108.93;30.67;;;;;;;1.54;83.58;102151.84;124355;1112;23047;-56
2021/03/02 06:09:11;;;;;;;98.93;30.03;;;;;;;1.53;83.82;102144.73;124093;1111;23242;-58
2021/03/02 06:11:40;;;;;;;77.83;28.47;;;;;;;1.57;83.22;102150.31;125168;1112;23081;-56
2021/03/02 06:14:21;;;;;;;95.13;31.30;;;;;;;1.61;83.96;102151.16;124313;1111;23106;-54
2021/03/02 06:16:55;;;;;;;93.23;32.17;;;;;;;1.63;84.03;102138.58;124571;1112;23015;-57
2021/03/02 06:19:38;;;;;;;97.23;31.70;;;;;;;1.68;83.47;102148.48;124215;1111;24627;-56
2021/03/02 06:22:08;;;;;;;76.70;26.90;;;;;;;1.70;83.45;102145.37;124711;1111;23001;-54
2021/03/02 06:24:40;;;;;;;94.70;29.60;;;;;;;1.71;83.97;102146.95;125053;1112;23093;-62
2021/03/02 06:27:11;;;;;;;92.83;28.90;;;;;;;1.65;83.91;102144.51;124423;1111;23194;-57
2021/03/02 06:29:41;;;;;;;89.67;30.27;;;;;;;1.67;83.78;102149.66;124155;1112;26083;-56
2021/03/02 06:32:10;;;;;;;96.72;28.73;;;;;;;1.68;83.39;102151.23;124113;1112;23084;-57
2021/03/02 06:34:50;;;;;;;95.10;26.80;;;;;;;1.70;83.93;102154.41;124102;1112;27854;-54
2021/03/02 06:37:19;;;;;;;99.17;30.10;;;;;;;1.67;83.27;102143.36;124424;1110;23364;-54
2021/03/02 06:39:48;;;;;;;89.30;29.37;;;;;;;1.65;83.82;102144.51;124160;1112;23083;-54
2021/03/02 06:42:19;;;;;;;92.50;30.15;;;;;;;1.69;83.66;102149.28;124270;1112;24685;-55
2021/03/02 06:44:49;;;;;;;88.50;29.70;;;;;;;1.75;84.31;102150.55;124233;1112;27352;-55
2021/03/02 06:47:33;;;;;;;105.35;32.75;;;;;;;1.76;84.28;102147.41;124274;1110;23206;-54
2021/03/02 06:50:04;;;;;;;92.47;29.70;;;;;;;1.77;83.77;102142.70;124322;1112;26298;-56
2021/03/02 06:52:38;;;;;;;77.33;27.83;;;;;;;1.76;83.72;102150.16;124286;1110;24674;-56
2021/03/02 06:55:23;;;;;;;85.20;26.40;;;;;;;1.75;84.26;102159.61;124098;1112;23024;-56
2021/03/02 06:57:52;;;;;;;101.53;29.50;;;;;;;1.79;84.13;102156.89;124115;1112;22984;-56
2021/03/02 07:00:33;;;;;;;93.13;30.67;;;;;;;1.79;83.79;102154.14;124363;1111;23239;-57
2021/03/02 07:03:02;;;;;;;102.27;32.63;;;;;;;1.82;84.49;102159.69;124657;1111;23166;-56
2021/03/02 07:05:32;;;;;;;99.33;33.90;;;;;;;1.82;83.80;102175.44;124143;1110;23367;-56
2021/03/02 07:08:01;;;;;;;86.23;34.60;;;;;;;1.84;83.81;102170.34;124381;1111;23081;-54
2021/03/02 07:10:30;;;;;;;92.63;33.10;;;;;;;1.86;83.84;102154.25;124438;1112;23228;-54
2021/03/02 07:13:00;;;;;;;100.77;34.00;;;;;;;1.89;83.94;102165.30;124153;1112;23025;-58
2021/03/02 07:15:30;;;;;;;85.80;32.03;;;;;;;1.92;84.37;102159.06;124401;1112;24831;-55
2021/03/02 07:18:02;;;;;;;85.80;29.87;;;;;;;1.95;84.29;102161.05;124311;1112;27531;-55
2021/03/02 07:20:33;;;;;;;81.00;30.03;;;;;;;1.97;83.91;102166.98;124123;1112;26958;-57
2021/03/02 07:23:03;;;;;;;75.15;27.58;;;;;;;1.96;83.54;102170.91;124283;1111;23594;-55
2021/03/02 07:25:36;;;;;;;84.47;28.12;;;;;;;1.97;84.30;102174.44;124117;1111;26083;-57
2021/03/02 07:28:07;;;;;;;92.40;28.93;;;;;;;1.95;84.28;102166.56;124768;1111;23083;-57
2021/03/02 07:30:36;;;;;;;74.80;25.03;;;;;;;2.00;84.13;102162.69;124282;1111;23025;-58
2021/03/02 07:33:07;;;;;;;78.03;25.13;;;;;;;2.03;84.33;102168.23;124201;1111;23083;-55
2021/03/02 07:35:36;;;;;;;81.30;27.80;;;;;;;2.00;83.74;102176.45;124707;1112;22985;-56
2021/03/02 07:38:19;;;;;;;79.77;26.23;;;;;;;1.97;84.11;102177.99;124300;1111;23299;-56
2021/03/02 07:40:51;;;;;;;77.60;28.57;;;;;;;1.96;84.26;102178.38;124183;1111;26456;-57
2021/03/02 07:43:30;;;;;;;73.45;27.25;;;;;;;1.95;84.23;102163.80;124082;1112;23170;-57
2021/03/02 07:46:01;;;;;;;83.83;28.07;;;;;;;1.99;84.28;102172.91;124062;1111;27505;-56
2021/03/02 07:48:33;;;;;;;75.95;25.80;;;;;;;2.00;84.45;102170.95;124160;1111;26035;-57
2021/03/02 07:51:21;;;;;;;72.63;25.50;;;;;;;2.00;84.04;102174.50;124536;1112;23030;-56
2021/03/02 07:53:52;;;;;;;73.80;28.15;;;;;;;2.01;84.50;102162.30;124795;1110;23104;-57
2021/03/02 07:56:25;;;;;;;66.40;26.93;;;;;;;2.02;84.40;102163.91;124309;1112;23037;-56
2021/03/02 07:59:20;;;;;;;78.37;28.27;;;;;;;2.06;84.27;102175.77;124166;1112;23035;-55
2021/03/02 08:02:18;;;;;;;74.83;28.50;;;;;;;2.12;84.50;102176.21;124224;1111;23092;-57
2021/03/02 08:04:48;;;;;;;81.13;30.47;;;;;;;2.18;85.38;102172.76;123981;1114;23056;-57
2021/03/02 08:07:25;;;;;;;84.13;32.45;;;;;;;2.22;84.93;102176.34;123837;1114;23100;-56
2021/03/02 08:09:56;;;;;;;83.00;32.67;;;;;;;2.27;84.33;102175.23;124307;1113;23018;-55
2021/03/02 08:12:36;;;;;;;86.30;34.63;;;;;;;2.31;84.92;102165.84;123762;1113;23045;-54
2021/03/02 08:15:39;;;;;;;84.22;32.08;;;;;;;2.39;84.67;102164.74;124209;1113;23237;-57
2021/03/02 08:18:29;;;;;;;83.53;32.20;;;;;;;2.44;84.52;102167.14;123751;1114;23092;-58
2021/03/02 08:21:15;;;;;;;74.62;30.62;;;;;;;2.46;84.96;102175.06;124528;1113;24435;-56
2021/03/02 08:23:53;;;;;;;73.40;27.40;;;;;;;2.50;84.54;102175.09;123854;1115;24432;-56
2021/03/02 08:26:30;;;;;;;62.93;24.60;;;;;;;2.47;84.33;102184.91;124069;1114;23233;-56
2021/03/02 08:29:15;;;;;;;65.37;26.03;;;;;;;2.45;84.52;102182.53;123950;1114;23036;-56
2021/03/02 08:31:46;;;;;;;62.57;23.70;;;;;;;2.43;84.23;102187.62;124638;1115;24690;-56
2021/03/02 08:34:18;;;;;;;67.50;26.70;;;;;;;2.48;84.16;102179.00;124361;1114;23666;-57
2021/03/02 08:36:50;;;;;;;67.17;26.63;;;;;;;2.54;84.65;102176.72;124773;1114;26067;-56
2021/03/02 08:39:21;;;;;;;62.73;26.30;;;;;;;2.62;84.90;102181.14;123998;1114;23426;-54
2021/03/02 08:41:51;;;;;;;67.27;24.90;;;;;;;2.63;84.09;102177.19;125057;1111;23245;-57
2021/03/02 08:44:22;;;;;;;67.10;25.90;;;;;;;2.66;84.38;102178.41;124787;1112;24677;-57
2021/03/02 08:46:54;;;;;;;64.63;26.10;;;;;;;2.67;84.55;102172.50;124307;1111;23083;-55
2021/03/02 08:49:24;;;;;;;73.67;28.60;;;;;;;2.74;84.68;102185.58;124605;1111;26319;-57
2021/03/02 08:52:00;;;;;;;71.40;27.67;;;;;;;2.77;84.38;102187.59;125263;1111;23096;-56
2021/03/02 08:54:30;;;;;;;72.17;28.73;;;;;;;2.76;84.03;102191.51;124397;1111;23040;-54
2021/03/02 08:57:04;;;;;;;69.07;26.70;;;;;;;2.80;84.54;102189.58;124207;1112;23030;-56
2021/03/02 08:59:33;;;;;;;75.43;28.83;;;;;;;2.80;84.55;102195.09;124217;1112;23101;-56
2021/03/02 09:02:03;;;;;;;73.97;28.83;;;;;;;2.82;84.39;102192.75;124261;1112;23036;-58
2021/03/02 09:04:34;;;;;;;67.77;27.13;;;;;;;2.83;84.03;102197.11;124801;1110;22989;-57
2021/03/02 09:07:03;;;;;;;71.50;28.93;;;;;;;2.83;84.00;102202.63;124140;1110;23080;-55
2021/03/02 09:09:32;;;;;;;71.30;26.60;;;;;;;2.80;83.88;102206.92;124268;1112;24681;-58
2021/03/02 09:12:02;;;;;;;72.12;29.05;;;;;;;2.81;83.91;102202.21;124313;1112;23029;-54
2021/03/02 09:14:34;;;;;;;82.20;31.03;;;;;;;2.81;84.37;102196.69;124353;1111;23084;-57
2021/03/02 09:17:06;;;;;;;77.90;30.00;;;;;;;2.82;84.06;102195.50;124206;1112;24150;-56
2021/03/02 09:19:39;;;;;;;71.40;29.30;;;;;;;2.85;84.57;102194.77;124209;1112;23238;-58
2021/03/02 09:22:10;;;;;;;79.17;30.97;;;;;;;2.87;84.35;102197.94;124862;1111;23044;-57
2021/03/02 09:24:40;;;;;;;70.80;27.45;;;;;;;2.92;84.44;102186.53;124190;1112;23030;-57
2021/03/02 09:27:13;;;;;;;66.45;27.40;;;;;;;2.97;84.48;102187.00;124074;1111;23040;-57
2021/03/02 09:29:43;;;;;;;77.13;29.87;;;;;;;2.97;83.95;102191.72;124195;1112;23231;-56
2021/03/02 09:32:16;;;;;;;88.37;32.43;;;;;;;3.02;84.60;102188.63;124131;1112;23179;-58
2021/03/02 09:34:47;;;;;;;76.00;32.20;;;;;;;3.08;84.52;102195.38;124117;1112;23209;-58
2021/03/02 09:37:18;;;;;;;75.57;28.00;;;;;;;3.12;84.04;102196.20;124120;1111;23083;-55
2021/03/02 09:39:56;;;;;;;78.20;34.57;;;;;;;3.11;84.13;102195.41;124166;1112;27332;-55
2021/03/02 09:42:29;;;;;;;71.85;30.50;;;;;;;3.14;84.23;102191.09;124268;1112;24218;-56
2021/03/02 09:44:59;;;;;;;68.23;28.77;;;;;;;3.18;83.78;102195.48;124736;1111;23147;-56
2021/03/02 09:47:28;;;;;;;;;;;;;;;3.22;84.58;102192.73;124424;1112;26217;-57
2021/03/02 09:49:59;;;;;;;67.77;26.23;;;;;;;3.26;84.31;102183.31;124809;1111;21530;-56
2021/03/02 09:52:36;;;;;;;76.23;30.17;;;;;;;3.32;84.33;102178.22;124424;1111;23084;-57
2021/03/02 09:55:29;;;;;;;69.03;30.33;;;;;;;3.38;84.49;102178.65;124170;1111;23197;-57
2021/03/02 09:58:12;;;;;;;68.47;28.33;;;;;;;3.48;84.00;102186.21;124339;1112;23043;-57
2021/03/02 10:00:49;;;;;;;70.23;29.53;;;;;;;3.54;84.35;102182.71;124585;1112;23024;-58
2021/03/02 10:03:21;;;;;;;81.97;31.77;;;;;;;3.61;84.50;102188.30;124510;1110;23038;-55
2021/03/02 10:05:56;;;;;;;74.00;32.77;;;;;;;3.71;84.26;102184.00;124154;1112;23089;-57
2021/03/02 10:08:28;;;;;;;66.27;28.43;;;;;;;3.79;83.87;102188.39;124272;1111;23028;-57
2021/03/02 10:10:59;;;;;;;73.67;31.10;;;;;;;3.79;83.48;102194.72;124070;1111;23106;-59
2021/03/02 10:13:32;;;;;;;79.13;33.33;;;;;;;3.83;83.92;102203.02;124686;1110;23436;-58
2021/03/02 10:16:23;;;;;;;80.17;35.07;;;;;;;3.93;84.20;102194.79;124408;1111;23086;-58
2021/03/02 10:18:55;;;;;;;83.77;37.07;;;;;;;4.03;83.90;102194.05;124324;1112;23030;-58
2021/03/02 10:21:26;;;;;;;85.93;34.43;;;;;;;4.05;83.77;102191.72;124787;1111;23081;-55
2021/03/02 10:23:58;;;;;;;87.23;35.73;;;;;;;4.08;83.64;102192.89;124152;1111;23075;-59
2021/03/02 10:26:32;;;;;;;90.60;35.67;;;;;;;4.15;83.76;102189.37;124338;1111;23100;-57
2021/03/02 10:29:03;;;;;;;82.03;32.70;;;;;;;4.21;83.64;102191.38;124375;1111;26553;-59
2021/03/02 10:31:32;;;;;;;81.50;33.37;;;;;;;4.26;83.48;102196.55;124456;1111;23233;-58
2021/03/02 10:34:03;;;;;;;75.87;33.77;;;;;;;4.26;83.58;102191.02;125314;1110;24622;-58
2021/03/02 10:36:33;;;;;;;;;;;;;;;4.29;83.52;102189.43;124603;1112;23161;-57
2021/03/02 10:39:05;;;;;;;68.13;29.30;;;;;;;4.29;83.53;102190.23;124328;1110;21549;-59
2021/03/02 10:41:34;;;;;;;78.13;32.83;;;;;;;4.29;83.25;102183.91;124627;1111;23000;-57
2021/03/02 10:44:04;;;;;;;75.10;33.33;;;;;;;4.33;83.34;102182.73;124267;1112;27374;-58
2021/03/02 10:46:35;;;;;;;75.35;32.67;;;;;;;4.32;83.16;102183.13;124827;1112;26593;-57
2021/03/02 10:49:05;;;;;;;74.33;31.50;;;;;;;4.35;83.41;102176.81;124319;1111;23027;-58
2021/03/02 10:51:35;;;;;;;74.07;32.50;;;;;;;4.36;83.41;102181.17;124181;1111;23026;-59
2021/03/02 10:54:04;;;;;;;77.87;34.40;;;;;;;4.40;83.45;102176.45;124441;1110;27377;-57
2021/03/02 10:56:33;;;;;;;81.67;34.83;;;;;;;4.43;83.56;102175.67;124288;1111;23023;-58
2021/03/02 10:59:03;;;;;;;76.33;34.00;;;;;;;4.47;83.36;102168.95;124464;1112;23018;-58
2021/03/02 11:01:32;;;;;;;74.58;34.75;;;;;;;4.55;83.13;102164.25;124296;1112;24619;-59
2021/03/02 11:04:02;;;;;;;81.17;35.80;;;;;;;4.61;83.21;102165.45;124322;1112;23037;-57
2021/03/02 11:06:33;;;;;;;78.87;34.10;;;;;;;4.69;83.49;102165.08;124436;1111;23089;-57
2021/03/02 11:09:04;;;;;;;74.70;34.00;;;;;;;4.75;83.17;102162.70;124338;1111;23370;-59
2021/03/02 11:11:33;;;;;;;81.03;36.57;;;;;;;4.80;82.86;102157.56;124249;1111;24670;-58
2021/03/02 11:14:02;;;;;;;80.10;37.50;;;;;;;4.86;83.37;102149.68;124759;1112;23045;-58
2021/03/02 11:16:31;;;;;;;76.77;36.03;;;;;;;4.94;83.01;102143.73;124386;1112;24683;-57
2021/03/02 11:19:02;;;;;;;84.43;36.23;;;;;;;5.06;83.06;102145.33;124267;1111;23246;-57
2021/03/02 11:21:31;;;;;;;79.73;35.07;;;;;;;5.12;82.77;102148.48;124233;1110;23037;-58
2021/03/02 11:24:01;;;;;;;83.20;36.67;;;;;;;5.18;82.97;102141.36;124267;1111;26142;-58
2021/03/02 11:26:31;;;;;;;71.73;33.23;;;;;;;5.26;82.60;102138.20;124158;1110;23026;-58
2021/03/02 11:29:01;;;;;;;73.47;34.10;;;;;;;5.35;82.71;102146.11;124556;1111;23035;-57
2021/03/02 11:31:30;;;;;;;71.97;33.20;;;;;;;5.44;82.82;102135.42;124272;1112;23065;-57
2021/03/02 11:33:59;;;;;;;74.30;34.73;;;;;;;5.51;82.23;102136.19;124368;1111;23207;-55